createdAt,value
2018-11-25T00:00:44.659Z,55.07
2018-11-25T00:03:15.583Z,52.90
2018-11-25T00:05:46.437Z,55.00
2018-11-25T00:08:32.568Z,50.60
2018-11-25T00:11:03.128Z,58.87
2018-11-25T00:13:33.874Z,53.27
2018-11-25T00:16:04.455Z,55.63
2018-11-25T00:18:35.748Z,54.87
2018-11-25T00:21:07.020Z,54.10
2018-11-25T00:23:37.876Z,56.70
2018-11-25T00:26:08.842Z,55.13
2018-11-25T00:28:39.381Z,51.63
2018-11-25T00:31:10.260Z,52.57
2018-11-25T00:33:40.983Z,51.43
2018-11-25T00:36:11.614Z,54.77
2018-11-25T00:38:42.359Z,50.80
2018-11-25T00:41:13.185Z,57.70
2018-11-25T00:43:43.779Z,53.57
2018-11-25T00:46:14.283Z,53.63
2018-11-25T00:48:45.072Z,52.23
2018-11-25T00:51:15.509Z,49.67
2018-11-25T00:53:46.212Z,50.40
2018-11-25T00:56:16.695Z,52.17
2018-11-25T00:58:52.979Z,50.63
2018-11-25T01:01:23.375Z,48.83
2018-11-25T01:03:54.111Z,57.53
2018-11-25T01:06:24.991Z,53.07
2018-11-25T01:08:55.740Z,51.13
2018-11-25T01:11:26.206Z,49.20
2018-11-25T01:13:57.023Z,48.73
2018-11-25T01:16:27.635Z,43.87
2018-11-25T01:18:58.130Z,47.57
2018-11-25T01:21:28.926Z,46.53
2018-11-25T01:23:59.435Z,46.50
2018-11-25T01:26:30.034Z,41.93
2018-11-25T01:29:00.784Z,42.83
2018-11-25T01:31:32.269Z,46.00
2018-11-25T01:34:03.222Z,44.23
2018-11-25T01:36:33.757Z,45.93
2018-11-25T01:39:04.945Z,50.05
2018-11-25T01:41:35.250Z,44.27
2018-11-25T01:44:06.155Z,46.15
2018-11-25T01:46:36.544Z,41.43
2018-11-25T01:49:07.421Z,37.60
2018-11-25T01:51:37.726Z,36.63
2018-11-25T01:54:08.424Z,39.47
2018-11-25T01:56:39.044Z,40.27
2018-11-25T01:59:09.697Z,35.47
2018-11-25T02:01:40.378Z,40.07
2018-11-25T02:04:11.119Z,40.47
2018-11-25T02:06:41.773Z,40.47
2018-11-25T02:09:12.496Z,42.00
2018-11-25T02:11:42.929Z,43.93
2018-11-25T02:14:13.861Z,41.40
2018-11-25T02:16:44.453Z,49.47
2018-11-25T02:19:16.145Z,39.13
2018-11-25T02:21:46.639Z,40.87
2018-11-25T02:24:17.224Z,42.33
2018-11-25T02:26:47.696Z,38.90
2018-11-25T02:29:18.180Z,46.43
2018-11-25T02:31:48.606Z,38.50
2018-11-25T02:34:19.141Z,40.17
2018-11-25T02:36:50.068Z,38.73
2018-11-25T02:39:20.553Z,40.10
2018-11-25T02:41:51.064Z,37.70
2018-11-25T02:44:21.646Z,42.10
2018-11-25T02:46:52.112Z,40.40
2018-11-25T02:49:22.985Z,41.30
2018-11-25T02:51:53.454Z,41.42
2018-11-25T02:54:23.961Z,37.60
2018-11-25T02:56:54.437Z,43.50
2018-11-25T02:59:25.079Z,40.43
2018-11-25T03:01:55.518Z,42.13
2018-11-25T03:04:26.090Z,43.00
2018-11-25T03:06:56.492Z,43.93
2018-11-25T03:09:27.429Z,41.47
2018-11-25T03:11:58.169Z,42.30
2018-11-25T03:14:28.681Z,43.00
2018-11-25T03:16:59.202Z,44.40
2018-11-25T03:19:29.851Z,43.33
2018-11-25T03:22:00.536Z,41.13
2018-11-25T03:24:31.438Z,46.03
2018-11-25T03:27:02.225Z,40.87
2018-11-25T03:29:32.959Z,43.83
2018-11-25T03:32:03.652Z,48.10
2018-11-25T03:34:34.177Z,49.17
2018-11-25T03:37:04.730Z,50.17
2018-11-25T03:39:35.287Z,51.33
2018-11-25T03:42:05.853Z,49.13
2018-11-25T03:44:36.386Z,44.87
2018-11-25T03:47:07.384Z,45.47
2018-11-25T03:49:38.270Z,46.70
2018-11-25T03:52:08.839Z,48.33
2018-11-25T03:54:39.445Z,43.60
2018-11-25T03:57:10.027Z,50.07
2018-11-25T03:59:40.571Z,57.70
2018-11-25T04:02:11.357Z,50.57
2018-11-25T04:04:42.196Z,49.17
2018-11-25T04:07:12.736Z,54.40
2018-11-25T04:09:43.341Z,53.90
2018-11-25T04:12:13.826Z,43.33
2018-11-25T04:14:44.401Z,43.43
2018-11-25T04:17:15.245Z,47.40
2018-11-25T04:19:45.740Z,43.90
2018-11-25T04:22:16.115Z,43.57
2018-11-25T04:24:46.989Z,46.80
2018-11-25T04:27:17.580Z,44.37
2018-11-25T04:29:48.170Z,48.50
2018-11-25T04:32:18.717Z,52.90
2018-11-25T04:34:49.648Z,48.33
2018-11-25T04:37:20.281Z,46.03
2018-11-25T04:39:50.780Z,44.03
2018-11-25T04:42:21.420Z,47.33
2018-11-25T04:44:52.050Z,48.27
2018-11-25T04:47:22.591Z,52.10
2018-11-25T04:49:54.075Z,48.40
2018-11-25T04:52:24.467Z,51.10
2018-11-25T04:54:56.014Z,48.83
2018-11-25T04:57:26.805Z,49.70
2018-11-25T04:59:57.485Z,51.70
2018-11-25T05:02:28.251Z,53.97
2018-11-25T05:04:58.945Z,49.23
2018-11-25T05:07:30.029Z,51.17
2018-11-25T05:10:00.663Z,51.07
2018-11-25T05:12:31.178Z,53.20
2018-11-25T05:15:01.813Z,54.20
2018-11-25T05:17:32.844Z,51.07
2018-11-25T05:20:03.520Z,52.35
2018-11-25T05:22:34.344Z,50.47
2018-11-25T05:25:05.158Z,59.47
2018-11-25T05:27:35.831Z,90.95
2018-11-25T05:30:10.095Z,63.47
2018-11-25T05:32:40.601Z,60.03
2018-11-25T05:35:14.292Z,68.77
2018-11-25T05:37:45.184Z,61.53
2018-11-25T05:40:16.813Z,58.83
2018-11-25T05:42:47.424Z,98.67
2018-11-25T05:45:20.156Z,141.82
2018-11-25T05:47:50.932Z,128.63
2018-11-25T05:50:21.515Z,117.65
2018-11-25T05:52:53.065Z,110.37
2018-11-25T05:55:23.640Z,109.90
2018-11-25T05:57:54.454Z,110.83
2018-11-25T06:00:28.954Z,106.87
2018-11-25T06:02:59.542Z,93.47
2018-11-25T06:05:30.232Z,76.87
2018-11-25T06:08:00.752Z,102.30
2018-11-25T06:10:31.719Z,153.70
2018-11-25T06:13:02.487Z,101.13
2018-11-25T06:15:33.064Z,70.63
2018-11-25T06:18:03.499Z,99.57
2018-11-25T06:20:34.139Z,111.80
2018-11-25T06:23:04.995Z,86.70
2018-11-25T06:25:35.657Z,58.63
2018-11-25T06:28:06.988Z,50.50
2018-11-25T06:30:40.904Z,55.07
2018-11-25T06:33:12.925Z,52.13
2018-11-25T06:35:44.066Z,49.50
2018-11-25T06:38:15.502Z,46.40
2018-11-25T06:40:47.095Z,45.20
2018-11-25T06:43:19.183Z,50.67
2018-11-25T06:45:50.723Z,42.57
2018-11-25T06:48:22.714Z,43.33
2018-11-25T06:50:54.819Z,41.50
2018-11-25T06:53:26.616Z,44.60
2018-11-25T06:58:27.442Z,47.37
2018-11-25T07:00:59.290Z,48.13
2018-11-25T07:03:30.745Z,46.37
2018-11-25T07:06:02.626Z,48.97
2018-11-25T07:08:33.851Z,49.40
2018-11-25T07:11:07.746Z,52.70
2018-11-25T07:13:39.293Z,55.83
2018-11-25T07:16:10.516Z,78.87
2018-11-25T07:21:11.518Z,57.50
2018-11-25T07:23:43.912Z,49.67
2018-11-25T07:26:15.888Z,47.37
2018-11-25T07:28:46.629Z,49.13
2018-11-25T07:31:17.091Z,50.27
2018-11-25T07:33:48.258Z,47.37
2018-11-25T07:36:18.827Z,56.40
2018-11-25T07:38:49.622Z,57.87
2018-11-25T07:41:20.216Z,41.33
2018-11-25T07:43:51.140Z,43.20
2018-11-25T07:46:26.765Z,38.23
2018-11-25T07:48:57.295Z,43.13
2018-11-25T07:51:27.883Z,40.47
2018-11-25T07:53:58.659Z,48.97
2018-11-25T07:56:30.067Z,44.97
2018-11-25T07:59:01.313Z,40.70
2018-11-25T08:01:31.791Z,39.07
2018-11-25T08:04:02.644Z,38.50
2018-11-25T08:06:33.168Z,46.73
2018-11-25T08:09:04.264Z,43.50
2018-11-25T08:11:34.956Z,42.37
2018-11-25T08:14:05.570Z,42.23
2018-11-25T08:16:36.465Z,37.83
2018-11-25T08:19:08.712Z,33.97
2018-11-25T08:21:40.323Z,35.27
2018-11-25T08:26:40.069Z,38.63
2018-11-25T08:29:11.225Z,41.23
2018-11-25T08:31:43.069Z,41.40
2018-11-25T08:34:13.759Z,38.43
2018-11-25T08:36:44.349Z,42.07
2018-11-25T08:39:15.182Z,50.73
2018-11-25T08:41:46.522Z,48.20
2018-11-25T08:44:17.641Z,47.47
2018-11-25T08:46:48.373Z,46.10
2018-11-25T08:49:19.309Z,54.00
2018-11-25T08:51:50.208Z,45.67
2018-11-25T08:54:21.316Z,51.10
2018-11-25T08:56:59.284Z,53.03
2018-11-25T08:59:29.910Z,65.10
2018-11-25T09:02:01.071Z,47.17
2018-11-25T09:04:32.319Z,49.67
2018-11-25T09:07:03.436Z,43.93
2018-11-25T09:09:34.042Z,65.40
2018-11-25T09:12:05.166Z,44.77
2018-11-25T09:14:36.010Z,59.60
2018-11-25T09:17:09.267Z,109.03
2018-11-25T09:19:40.952Z,50.77
2018-11-25T09:24:40.895Z,43.17
2018-11-25T09:27:11.480Z,34.27
2018-11-25T09:29:42.205Z,44.93
2018-11-25T09:32:13.185Z,53.30
2018-11-25T09:34:46.996Z,47.47
2018-11-25T09:37:18.187Z,63.60
2018-11-25T09:39:48.905Z,57.87
2018-11-25T09:42:19.531Z,54.93
2018-11-25T09:44:50.164Z,49.07
2018-11-25T09:47:20.809Z,45.50
2018-11-25T09:49:51.577Z,47.93
2018-11-25T09:52:22.210Z,57.67
2018-11-25T09:54:52.617Z,77.33
2018-11-25T09:57:23.497Z,61.17
2018-11-25T09:59:53.906Z,54.67
2018-11-25T10:02:24.612Z,57.23
2018-11-25T10:04:55.779Z,56.90
2018-11-25T10:07:26.632Z,56.63
2018-11-25T10:09:57.747Z,59.17
2018-11-25T10:12:28.731Z,48.73
2018-11-25T10:14:59.654Z,50.23
2018-11-25T10:17:30.755Z,53.30
2018-11-25T10:20:01.380Z,43.07
2018-11-25T10:22:32.011Z,52.97
2018-11-25T10:25:02.960Z,57.50
2018-11-25T10:27:33.696Z,52.10
2018-11-25T10:30:04.660Z,50.17
2018-11-25T10:32:35.195Z,46.40
2018-11-25T10:35:06.618Z,50.83
2018-11-25T10:37:37.415Z,54.63
2018-11-25T10:40:23.583Z,52.50
2018-11-25T10:42:54.239Z,45.23
2018-11-25T10:45:27.959Z,47.90
2018-11-25T10:47:59.304Z,47.43
2018-11-25T10:50:30.166Z,45.60
2018-11-25T10:53:00.961Z,44.93
2018-11-25T10:55:31.803Z,44.27
2018-11-25T10:58:02.932Z,44.67
2018-11-25T11:00:40.343Z,44.97
2018-11-25T11:03:16.545Z,45.40
2018-11-25T11:05:53.167Z,45.73
2018-11-25T11:08:25.530Z,43.93
2018-11-25T11:10:56.200Z,49.90
2018-11-25T11:13:26.981Z,44.53
2018-11-25T11:15:58.027Z,44.57
2018-11-25T11:18:28.687Z,51.20
2018-11-25T11:20:59.445Z,54.07
2018-11-25T11:23:30.447Z,47.87
2018-11-25T11:26:06.636Z,52.73
2018-11-25T11:28:32.043Z,53.10
2018-11-25T11:31:02.818Z,50.27
2018-11-25T11:33:33.657Z,39.47
2018-11-25T11:36:04.952Z,42.70
2018-11-25T11:38:35.839Z,43.80
2018-11-25T11:41:06.391Z,42.53
2018-11-25T11:43:40.096Z,41.47
2018-11-25T11:46:10.595Z,40.63
2018-11-25T11:48:41.404Z,45.27
2018-11-25T11:51:12.238Z,37.30
2018-11-25T11:53:42.831Z,48.70
2018-11-25T11:56:15.154Z,47.83
2018-11-25T11:58:46.345Z,39.57
2018-11-25T12:01:16.975Z,38.13
2018-11-25T12:03:47.640Z,61.03
2018-11-25T12:06:18.525Z,45.20
2018-11-25T12:08:49.001Z,35.77
2018-11-25T12:11:19.717Z,36.10
2018-11-25T12:13:50.537Z,45.77
2018-11-25T12:16:21.759Z,38.50
2018-11-25T12:18:52.664Z,37.17
2018-11-25T12:21:23.159Z,39.73
2018-11-25T12:23:54.177Z,42.43
2018-11-25T12:26:25.274Z,42.27
2018-11-25T12:28:56.062Z,44.17
2018-11-25T12:31:26.988Z,42.63
2018-11-25T12:33:57.696Z,36.47
2018-11-25T12:36:28.539Z,41.73
2018-11-25T12:38:59.095Z,37.43
2018-11-25T12:41:29.749Z,35.90
2018-11-25T12:44:00.657Z,56.50
2018-11-25T12:46:31.380Z,40.77
2018-11-25T12:49:02.232Z,43.37
2018-11-25T12:51:33.237Z,47.27
2018-11-25T12:54:03.965Z,51.50
2018-11-25T12:56:34.642Z,51.53
2018-11-25T12:59:05.543Z,54.47
2018-11-25T13:01:36.444Z,56.13
2018-11-25T13:04:07.570Z,54.87
2018-11-25T13:06:38.274Z,44.30
2018-11-25T13:09:09.716Z,47.53
2018-11-25T13:11:40.855Z,41.03
2018-11-25T13:14:13.288Z,48.43
2018-11-25T13:16:44.013Z,103.00
2018-11-25T13:19:16.406Z,75.43
2018-11-25T13:21:48.302Z,113.17
2018-11-25T13:24:18.928Z,269.00
2018-11-25T13:26:49.635Z,66.50
2018-11-25T13:29:21.222Z,49.17
2018-11-25T13:31:52.187Z,49.87
2018-11-25T13:34:23.018Z,54.03
2018-11-25T13:36:53.909Z,51.47
2018-11-25T13:39:24.681Z,49.57
2018-11-25T13:41:55.445Z,54.37
2018-11-25T13:44:26.590Z,61.37
2018-11-25T13:46:57.467Z,67.40
2018-11-25T13:49:28.796Z,68.70
2018-11-25T13:51:59.577Z,62.53
2018-11-25T13:54:30.179Z,64.97
2018-11-25T13:57:01.091Z,64.40
2018-11-25T13:59:31.613Z,60.17
2018-11-25T14:02:02.732Z,62.40
2018-11-25T14:04:33.629Z,64.60
2018-11-25T14:07:04.418Z,65.60
2018-11-25T14:09:35.300Z,55.53
2018-11-25T14:12:06.259Z,59.13
2018-11-25T14:14:37.377Z,52.73
2018-11-25T14:17:07.803Z,61.50
2018-11-25T14:19:38.718Z,61.63
2018-11-25T14:22:09.637Z,60.33
2018-11-25T14:24:40.241Z,56.83
2018-11-25T14:27:12.015Z,65.20
2018-11-25T14:29:42.584Z,88.50
2018-11-25T14:32:13.690Z,68.80
2018-11-25T14:34:44.431Z,70.47
2018-11-25T14:37:14.928Z,67.27
2018-11-25T14:39:46.010Z,65.97
2018-11-25T14:42:16.525Z,60.10
2018-11-25T14:44:47.057Z,116.03
2018-11-25T14:47:17.647Z,99.57
2018-11-25T14:49:48.581Z,80.20
2018-11-25T14:52:19.240Z,68.87
2018-11-25T14:54:51.310Z,72.57
2018-11-25T14:57:21.204Z,62.90
2018-11-25T14:59:52.273Z,64.93
2018-11-25T15:02:23.016Z,74.53
2018-11-25T15:04:53.709Z,79.23
2018-11-25T15:07:24.420Z,69.97
2018-11-25T15:09:55.194Z,77.40
2018-11-25T15:12:25.788Z,159.67
2018-11-25T15:14:56.486Z,148.70
2018-11-25T15:17:27.005Z,153.30
2018-11-25T15:19:57.644Z,150.73
2018-11-25T15:22:28.801Z,199.40
2018-11-25T15:24:59.308Z,272.37
2018-11-25T15:27:29.916Z,273.53
2018-11-25T15:30:00.628Z,279.07
2018-11-25T15:32:31.441Z,258.90
2018-11-25T15:35:02.277Z,187.73
2018-11-25T15:37:32.736Z,200.97
2018-11-25T15:40:03.523Z,185.37
2018-11-25T15:42:34.295Z,168.23
2018-11-25T15:45:05.050Z,199.90
2018-11-25T15:47:35.549Z,172.23
2018-11-25T15:50:09.471Z,149.20
2018-11-25T15:52:40.697Z,154.10
2018-11-25T15:55:13.332Z,149.13
2018-11-25T15:57:43.802Z,176.07
2018-11-25T16:00:17.652Z,194.10
2018-11-25T16:02:48.716Z,258.07
2018-11-25T16:05:23.708Z,264.43
2018-11-25T16:07:54.468Z,255.80
2018-11-25T16:10:25.205Z,250.40
2018-11-25T16:12:55.751Z,165.97
2018-11-25T16:15:27.937Z,164.90
2018-11-25T16:17:58.709Z,206.23
2018-11-25T16:20:29.795Z,228.60
2018-11-25T16:23:03.224Z,229.97
2018-11-25T16:25:41.732Z,252.80
2018-11-25T16:28:16.992Z,335.83
2018-11-25T16:30:47.411Z,380.03
2018-11-25T16:33:17.966Z,471.47
2018-11-25T16:35:48.936Z,468.23
2018-11-25T16:38:19.698Z,474.03
2018-11-25T16:40:50.680Z,280.70
2018-11-25T16:43:22.116Z,284.87
2018-11-25T16:45:52.865Z,280.20
2018-11-25T16:48:23.518Z,261.37
2018-11-25T16:50:54.297Z,230.70
2018-11-25T16:53:25.204Z,187.60
2018-11-25T16:55:55.875Z,170.50
2018-11-25T16:58:26.530Z,146.30
2018-11-25T17:00:57.312Z,144.77
2018-11-25T17:03:27.913Z,132.97
2018-11-25T17:05:59.063Z,105.13
2018-11-25T17:08:38.392Z,120.90
2018-11-25T17:11:09.680Z,92.33
2018-11-25T17:13:40.770Z,95.70
2018-11-25T17:16:11.758Z,91.50
2018-11-25T17:18:42.903Z,73.83
2018-11-25T17:21:13.831Z,82.23
2018-11-25T17:23:44.459Z,85.73
2018-11-25T17:26:15.028Z,88.50
2018-11-25T17:28:45.862Z,84.47
2018-11-25T17:31:16.817Z,86.57
2018-11-25T17:33:48.332Z,90.93
2018-11-25T17:36:19.516Z,94.97
2018-11-25T17:38:50.626Z,95.07
2018-11-25T17:41:21.587Z,86.63
2018-11-25T17:43:52.388Z,93.13
2018-11-25T17:46:23.175Z,98.90
2018-11-25T17:48:53.858Z,91.63
2018-11-25T17:51:24.713Z,90.70
2018-11-25T17:53:55.805Z,85.10
2018-11-25T17:56:27.139Z,81.22
2018-11-25T17:58:57.770Z,79.73
2018-11-25T18:01:28.566Z,83.80
2018-11-25T18:03:59.342Z,82.33
2018-11-25T18:06:30.888Z,81.73
2018-11-25T18:09:02.016Z,84.00
2018-11-25T18:11:33.097Z,88.17
2018-11-25T18:14:04.035Z,83.60
2018-11-25T18:16:37.541Z,86.90
2018-11-25T18:19:18.178Z,87.10
2018-11-25T18:21:50.238Z,82.82
2018-11-25T18:24:21.288Z,88.73
2018-11-25T18:26:52.393Z,89.03
2018-11-25T18:29:23.917Z,86.07
2018-11-25T18:34:35.185Z,93.72
2018-11-25T18:37:06.155Z,90.65
2018-11-25T18:39:36.857Z,93.52
2018-11-25T18:42:08.349Z,100.15
2018-11-25T18:44:40.112Z,84.92
2018-11-25T18:47:11.683Z,83.22
2018-11-25T18:49:45.082Z,95.57
2018-11-25T18:52:16.529Z,90.05
2018-11-25T18:54:48.385Z,170.53
2018-11-25T18:57:18.901Z,212.35
2018-11-25T18:59:49.318Z,140.90
2018-11-25T19:02:27.309Z,129.70
2018-11-25T19:04:57.906Z,99.15
2018-11-25T19:07:31.088Z,96.02
2018-11-25T19:10:01.841Z,120.40
2018-11-25T19:12:32.633Z,111.30
2018-11-25T19:15:03.784Z,89.00
2018-11-25T19:17:34.655Z,89.62
2018-11-25T19:20:17.650Z,84.42
2018-11-25T19:22:53.841Z,86.97
2018-11-25T19:25:24.518Z,78.40
2018-11-25T19:27:56.341Z,92.45
2018-11-25T19:30:27.563Z,94.60
2018-11-25T19:32:58.459Z,87.75
2018-11-25T19:35:29.458Z,115.00
2018-11-25T19:38:00.452Z,131.35
2018-11-25T19:40:31.020Z,85.12
2018-11-25T19:43:01.666Z,85.55
2018-11-25T19:45:32.410Z,81.05
2018-11-25T19:48:02.858Z,97.20
2018-11-25T19:50:38.640Z,94.50
2018-11-25T19:53:10.817Z,92.02
2018-11-25T19:55:42.424Z,89.75
2018-11-25T19:58:12.911Z,99.40
2018-11-25T20:00:43.474Z,92.40
2018-11-25T20:03:14.292Z,90.47
2018-11-25T20:05:45.401Z,91.12
2018-11-25T20:08:15.999Z,87.88
2018-11-25T20:10:46.816Z,89.40
2018-11-25T20:13:17.574Z,92.60
2018-11-25T20:15:50.607Z,94.90
2018-11-25T20:18:21.303Z,84.85
2018-11-25T20:20:57.000Z,87.80
2018-11-25T20:23:27.765Z,91.53
2018-11-25T20:25:58.249Z,94.32
2018-11-25T20:28:28.832Z,95.35
2018-11-25T20:30:59.570Z,101.65
2018-11-25T20:33:35.656Z,98.37
2018-11-25T20:36:06.994Z,90.70
2018-11-25T20:38:42.309Z,87.82
2018-11-25T20:41:12.960Z,83.42
2018-11-25T20:43:43.582Z,86.57
2018-11-25T20:46:19.011Z,85.30
2018-11-25T20:48:49.710Z,83.62
2018-11-25T20:51:24.207Z,81.57
2018-11-25T20:53:58.266Z,92.15
2018-11-25T20:56:28.996Z,92.27
2018-11-25T20:59:00.064Z,85.05
2018-11-25T21:01:30.628Z,86.80
2018-11-25T21:04:01.378Z,96.95
2018-11-25T21:06:32.320Z,97.62
2018-11-25T21:09:02.966Z,91.02
2018-11-25T21:11:33.591Z,89.72
2018-11-25T21:14:04.213Z,104.58
2018-11-25T21:16:36.535Z,107.45
2018-11-25T21:19:09.676Z,113.97
2018-11-25T21:21:42.041Z,104.87
2018-11-25T21:24:13.429Z,83.52
2018-11-25T21:26:44.789Z,86.63
2018-11-25T21:29:16.549Z,95.90
2018-11-25T21:31:48.560Z,85.03
2018-11-25T21:34:20.275Z,82.70
2018-11-25T21:36:52.087Z,84.67
2018-11-25T21:39:23.663Z,80.28
2018-11-25T21:41:55.168Z,86.95
2018-11-25T21:44:26.855Z,88.25
2018-11-25T21:46:59.122Z,81.17
2018-11-25T21:49:30.706Z,75.67
2018-11-25T21:52:02.950Z,79.30
2018-11-25T21:54:34.291Z,80.03
2018-11-25T21:57:05.839Z,80.92
2018-11-25T21:59:38.113Z,83.75
2018-11-25T22:02:11.137Z,80.25
2018-11-25T22:04:42.503Z,73.00
2018-11-25T22:07:13.360Z,76.72
2018-11-25T22:09:43.932Z,87.45
2018-11-25T22:12:14.601Z,81.80
2018-11-25T22:14:45.256Z,82.12
2018-11-25T22:17:16.275Z,85.60
2018-11-25T22:19:47.116Z,95.47
2018-11-25T22:22:17.687Z,97.00
2018-11-25T22:24:48.596Z,103.58
2018-11-25T22:27:19.192Z,103.65
2018-11-25T22:29:49.796Z,112.12
2018-11-25T22:32:20.724Z,101.30
2018-11-25T22:34:51.608Z,106.05
2018-11-25T22:37:22.141Z,108.78
2018-11-25T22:39:52.979Z,90.83
2018-11-25T22:42:23.997Z,98.07
2018-11-25T22:44:54.545Z,81.92
2018-11-25T22:47:25.417Z,82.00
2018-11-25T22:49:56.361Z,76.42
2018-11-25T22:52:27.014Z,73.25
2018-11-25T22:54:57.521Z,65.80
2018-11-25T22:57:28.447Z,68.50
2018-11-25T22:59:59.436Z,65.95
2018-11-25T23:02:30.624Z,64.22
2018-11-25T23:05:11.791Z,63.60
2018-11-25T23:07:42.648Z,62.60
2018-11-25T23:10:13.631Z,57.15
2018-11-25T23:12:44.451Z,59.38
2018-11-25T23:15:15.065Z,59.48
2018-11-25T23:17:45.790Z,57.25
2018-11-25T23:20:16.650Z,52.62
2018-11-25T23:22:47.731Z,59.98
2018-11-25T23:25:18.428Z,58.73
2018-11-25T23:27:49.120Z,55.08
2018-11-25T23:30:19.944Z,57.67
2018-11-25T23:32:50.800Z,63.60
2018-11-25T23:35:25.118Z,62.10
2018-11-25T23:37:55.698Z,70.00
2018-11-25T23:40:26.236Z,63.05
2018-11-25T23:42:56.949Z,62.90
2018-11-25T23:45:27.559Z,57.93
2018-11-25T23:47:58.001Z,59.95
2018-11-25T23:50:28.645Z,62.13
2018-11-25T23:52:59.217Z,60.12
2018-11-25T23:55:29.892Z,58.33
2018-11-25T23:58:00.515Z,63.05
